sensor_id;sensor_type;location;lat;lon;timestamp;P1;durP1;ratioP1;P2;durP2;ratioP2
48629;SDS011;34426;52.180;4.462;2024-02-21T00:02:05;35.55;;;5.25;;
48629;SDS011;34426;52.180;4.462;2024-02-21T00:04:31;34.97;;;5.38;;
48629;SDS011;34426;52.180;4.462;2024-02-21T00:06:56;42.90;;;6.68;;
48629;SDS011;34426;52.180;4.462;2024-02-21T00:09:22;42.10;;;5.30;;
48629;SDS011;34426;52.180;4.462;2024-02-21T00:11:47;40.63;;;5.80;;
48629;SDS011;34426;52.180;4.462;2024-02-21T00:14:13;35.60;;;6.03;;
48629;SDS011;34426;52.180;4.462;2024-02-21T00:16:38;37.50;;;6.53;;
48629;SDS011;34426;52.180;4.462;2024-02-21T00:19:05;40.70;;;4.90;;
48629;SDS011;34426;52.180;4.462;2024-02-21T00:21:30;38.72;;;6.38;;
48629;SDS011;34426;52.180;4.462;2024-02-21T00:23:56;57.15;;;6.43;;
48629;SDS011;34426;52.180;4.462;2024-02-21T00:26:21;39.65;;;5.22;;
48629;SDS011;34426;52.180;4.462;2024-02-21T00:28:47;37.03;;;5.28;;
48629;SDS011;34426;52.180;4.462;2024-02-21T00:31:13;36.17;;;5.30;;
48629;SDS011;34426;52.180;4.462;2024-02-21T00:33:38;40.58;;;5.57;;
48629;SDS011;34426;52.180;4.462;2024-02-21T00:36:05;41.95;;;5.90;;
48629;SDS011;34426;52.180;4.462;2024-02-21T00:38:31;44.85;;;5.93;;
48629;SDS011;34426;52.180;4.462;2024-02-21T00:40:56;42.58;;;5.45;;
48629;SDS011;34426;52.180;4.462;2024-02-21T00:43:21;46.38;;;5.10;;
48629;SDS011;34426;52.180;4.462;2024-02-21T00:45:47;42.45;;;5.55;;
48629;SDS011;34426;52.180;4.462;2024-02-21T00:48:12;35.83;;;5.25;;
48629;SDS011;34426;52.180;4.462;2024-02-21T00:50:38;51.85;;;7.32;;
48629;SDS011;34426;52.180;4.462;2024-02-21T00:53:05;37.75;;;5.50;;
48629;SDS011;34426;52.180;4.462;2024-02-21T00:55:30;38.95;;;5.40;;
48629;SDS011;34426;52.180;4.462;2024-02-21T00:57:55;45.30;;;5.57;;
48629;SDS011;34426;52.180;4.462;2024-02-21T01:00:21;37.67;;;5.15;;
48629;SDS011;34426;52.180;4.462;2024-02-21T01:02:47;49.03;;;6.88;;
48629;SDS011;34426;52.180;4.462;2024-02-21T01:05:12;47.97;;;6.00;;
48629;SDS011;34426;52.180;4.462;2024-02-21T01:07:38;41.30;;;6.28;;
48629;SDS011;34426;52.180;4.462;2024-02-21T01:10:05;41.83;;;5.75;;
48629;SDS011;34426;52.180;4.462;2024-02-21T01:12:31;42.97;;;6.65;;
48629;SDS011;34426;52.180;4.462;2024-02-21T01:14:57;41.47;;;5.50;;
48629;SDS011;34426;52.180;4.462;2024-02-21T01:17:22;43.40;;;5.50;;
48629;SDS011;34426;52.180;4.462;2024-02-21T01:19:48;44.58;;;7.00;;
48629;SDS011;34426;52.180;4.462;2024-02-21T01:22:13;44.63;;;5.72;;
48629;SDS011;34426;52.180;4.462;2024-02-21T01:24:38;54.83;;;5.72;;
48629;SDS011;34426;52.180;4.462;2024-02-21T01:27:05;59.70;;;7.35;;
48629;SDS011;34426;52.180;4.462;2024-02-21T01:29:31;35.97;;;6.28;;
48629;SDS011;34426;52.180;4.462;2024-02-21T01:31:56;49.00;;;7.50;;
48629;SDS011;34426;52.180;4.462;2024-02-21T01:34:21;37.53;;;6.22;;
48629;SDS011;34426;52.180;4.462;2024-02-21T01:36:47;43.35;;;5.75;;
48629;SDS011;34426;52.180;4.462;2024-02-21T01:39:12;53.20;;;8.77;;
48629;SDS011;34426;52.180;4.462;2024-02-21T01:41:38;59.33;;;6.50;;
48629;SDS011;34426;52.180;4.462;2024-02-21T01:44:05;44.88;;;7.65;;
48629;SDS011;34426;52.180;4.462;2024-02-21T01:46:30;48.20;;;6.35;;
48629;SDS011;34426;52.180;4.462;2024-02-21T01:48:56;55.08;;;6.32;;
48629;SDS011;34426;52.180;4.462;2024-02-21T01:51:22;55.58;;;5.82;;
48629;SDS011;34426;52.180;4.462;2024-02-21T01:53:48;39.63;;;5.20;;
48629;SDS011;34426;52.180;4.462;2024-02-21T01:56:16;57.22;;;6.00;;
48629;SDS011;34426;52.180;4.462;2024-02-21T01:58:42;39.50;;;5.72;;
48629;SDS011;34426;52.180;4.462;2024-02-21T02:01:10;44.90;;;5.63;;
48629;SDS011;34426;52.180;4.462;2024-02-21T02:03:35;46.38;;;5.60;;
48629;SDS011;34426;52.180;4.462;2024-02-21T02:06:01;39.15;;;6.13;;
48629;SDS011;34426;52.180;4.462;2024-02-21T02:08:30;56.25;;;7.95;;
48629;SDS011;34426;52.180;4.462;2024-02-21T02:10:56;42.03;;;5.93;;
48629;SDS011;34426;52.180;4.462;2024-02-21T02:13:22;45.58;;;7.32;;
48629;SDS011;34426;52.180;4.462;2024-02-21T02:15:48;43.72;;;6.65;;
48629;SDS011;34426;52.180;4.462;2024-02-21T02:18:15;44.72;;;6.70;;
48629;SDS011;34426;52.180;4.462;2024-02-21T02:20:42;48.35;;;5.65;;
48629;SDS011;34426;52.180;4.462;2024-02-21T02:23:09;38.08;;;5.88;;
48629;SDS011;34426;52.180;4.462;2024-02-21T02:25:37;49.50;;;7.97;;
48629;SDS011;34426;52.180;4.462;2024-02-21T02:28:03;42.95;;;6.10;;
48629;SDS011;34426;52.180;4.462;2024-02-21T02:30:31;52.08;;;8.48;;
48629;SDS011;34426;52.180;4.462;2024-02-21T02:32:57;53.35;;;6.68;;
48629;SDS011;34426;52.180;4.462;2024-02-21T02:35:22;47.17;;;6.97;;
48629;SDS011;34426;52.180;4.462;2024-02-21T02:37:48;44.80;;;6.20;;
48629;SDS011;34426;52.180;4.462;2024-02-21T02:40:14;44.45;;;5.75;;
48629;SDS011;34426;52.180;4.462;2024-02-21T02:42:41;36.25;;;6.07;;
48629;SDS011;34426;52.180;4.462;2024-02-21T02:45:07;49.25;;;5.70;;
48629;SDS011;34426;52.180;4.462;2024-02-21T02:47:33;50.67;;;6.35;;
48629;SDS011;34426;52.180;4.462;2024-02-21T02:49:58;44.75;;;7.18;;
48629;SDS011;34426;52.180;4.462;2024-02-21T02:52:23;50.78;;;6.88;;
48629;SDS011;34426;52.180;4.462;2024-02-21T02:54:49;43.38;;;5.82;;
48629;SDS011;34426;52.180;4.462;2024-02-21T02:57:14;49.55;;;5.70;;
48629;SDS011;34426;52.180;4.462;2024-02-21T02:59:41;41.58;;;7.03;;
48629;SDS011;34426;52.180;4.462;2024-02-21T03:02:07;45.72;;;5.75;;
48629;SDS011;34426;52.180;4.462;2024-02-21T03:04:32;41.35;;;6.15;;
48629;SDS011;34426;52.180;4.462;2024-02-21T03:06:57;45.72;;;5.38;;
48629;SDS011;34426;52.180;4.462;2024-02-21T03:09:23;47.17;;;6.28;;
48629;SDS011;34426;52.180;4.462;2024-02-21T03:11:49;45.38;;;5.53;;
48629;SDS011;34426;52.180;4.462;2024-02-21T03:14:17;36.53;;;5.70;;
48629;SDS011;34426;52.180;4.462;2024-02-21T03:16:44;37.55;;;5.00;;
48629;SDS011;34426;52.180;4.462;2024-02-21T03:19:09;46.88;;;5.78;;
48629;SDS011;34426;52.180;4.462;2024-02-21T03:21:35;38.97;;;5.53;;
48629;SDS011;34426;52.180;4.462;2024-02-21T03:24:00;35.83;;;4.85;;
48629;SDS011;34426;52.180;4.462;2024-02-21T03:26:26;37.65;;;5.43;;
48629;SDS011;34426;52.180;4.462;2024-02-21T03:28:51;44.03;;;6.13;;
48629;SDS011;34426;52.180;4.462;2024-02-21T03:31:17;33.08;;;4.75;;
48629;SDS011;34426;52.180;4.462;2024-02-21T03:33:43;37.03;;;5.78;;
48629;SDS011;34426;52.180;4.462;2024-02-21T03:36:12;33.78;;;5.10;;
48629;SDS011;34426;52.180;4.462;2024-02-21T03:38:38;35.38;;;4.93;;
48629;SDS011;34426;52.180;4.462;2024-02-21T03:41:04;39.55;;;5.25;;
48629;SDS011;34426;52.180;4.462;2024-02-21T03:43:29;35.28;;;5.55;;
48629;SDS011;34426;52.180;4.462;2024-02-21T03:45:54;30.85;;;5.05;;
48629;SDS011;34426;52.180;4.462;2024-02-21T03:48:20;34.55;;;5.07;;
48629;SDS011;34426;52.180;4.462;2024-02-21T03:50:47;37.25;;;5.05;;
48629;SDS011;34426;52.180;4.462;2024-02-21T03:53:12;30.77;;;4.88;;
48629;SDS011;34426;52.180;4.462;2024-02-21T03:55:37;44.13;;;5.15;;
48629;SDS011;34426;52.180;4.462;2024-02-21T03:58:03;29.98;;;4.30;;
48629;SDS011;34426;52.180;4.462;2024-02-21T04:00:28;35.92;;;6.22;;
48629;SDS011;34426;52.180;4.462;2024-02-21T04:02:54;45.13;;;6.18;;
48629;SDS011;34426;52.180;4.462;2024-02-21T04:05:19;36.17;;;5.68;;
48629;SDS011;34426;52.180;4.462;2024-02-21T04:07:46;40.03;;;5.88;;
48629;SDS011;34426;52.180;4.462;2024-02-21T04:10:12;42.20;;;5.53;;
48629;SDS011;34426;52.180;4.462;2024-02-21T04:12:37;44.42;;;7.25;;
48629;SDS011;34426;52.180;4.462;2024-02-21T04:15:03;28.15;;;5.13;;
48629;SDS011;34426;52.180;4.462;2024-02-21T04:17:29;28.95;;;5.45;;
48629;SDS011;34426;52.180;4.462;2024-02-21T04:19:56;32.22;;;5.68;;
48629;SDS011;34426;52.180;4.462;2024-02-21T04:22:27;28.92;;;5.93;;
48629;SDS011;34426;52.180;4.462;2024-02-21T04:24:54;29.77;;;5.40;;
48629;SDS011;34426;52.180;4.462;2024-02-21T04:27:19;40.05;;;6.78;;
48629;SDS011;34426;52.180;4.462;2024-02-21T04:29:45;36.50;;;6.40;;
48629;SDS011;34426;52.180;4.462;2024-02-21T04:32:10;31.67;;;5.85;;
48629;SDS011;34426;52.180;4.462;2024-02-21T04:34:36;35.13;;;6.50;;
48629;SDS011;34426;52.180;4.462;2024-02-21T04:37:01;38.58;;;5.78;;
48629;SDS011;34426;52.180;4.462;2024-02-21T04:39:27;29.42;;;5.60;;
48629;SDS011;34426;52.180;4.462;2024-02-21T04:41:53;33.88;;;6.72;;
48629;SDS011;34426;52.180;4.462;2024-02-21T04:44:19;33.70;;;6.32;;
48629;SDS011;34426;52.180;4.462;2024-02-21T04:46:44;34.58;;;6.60;;
48629;SDS011;34426;52.180;4.462;2024-02-21T04:49:10;36.42;;;7.07;;
48629;SDS011;34426;52.180;4.462;2024-02-21T04:51:35;38.53;;;9.10;;
48629;SDS011;34426;52.180;4.462;2024-02-21T04:54:00;32.60;;;7.70;;
48629;SDS011;34426;52.180;4.462;2024-02-21T04:56:26;30.70;;;6.63;;
48629;SDS011;34426;52.180;4.462;2024-02-21T04:58:53;29.33;;;6.53;;
48629;SDS011;34426;52.180;4.462;2024-02-21T05:01:18;38.72;;;8.43;;
48629;SDS011;34426;52.180;4.462;2024-02-21T05:03:43;28.67;;;7.63;;
48629;SDS011;34426;52.180;4.462;2024-02-21T05:06:09;32.47;;;6.82;;
48629;SDS011;34426;52.180;4.462;2024-02-21T05:08:34;28.40;;;6.38;;
48629;SDS011;34426;52.180;4.462;2024-02-21T05:11:00;42.38;;;7.50;;
48629;SDS011;34426;52.180;4.462;2024-02-21T05:13:26;27.23;;;6.28;;
48629;SDS011;34426;52.180;4.462;2024-02-21T05:15:52;26.85;;;7.35;;
48629;SDS011;34426;52.180;4.462;2024-02-21T05:18:18;26.08;;;6.60;;
48629;SDS011;34426;52.180;4.462;2024-02-21T05:20:43;29.35;;;7.40;;
48629;SDS011;34426;52.180;4.462;2024-02-21T05:23:09;27.67;;;6.47;;
48629;SDS011;34426;52.180;4.462;2024-02-21T05:25:34;29.83;;;6.53;;
48629;SDS011;34426;52.180;4.462;2024-02-21T05:28:00;33.53;;;6.55;;
48629;SDS011;34426;52.180;4.462;2024-02-21T05:30:25;27.33;;;6.45;;
48629;SDS011;34426;52.180;4.462;2024-02-21T05:32:52;25.15;;;5.90;;
48629;SDS011;34426;52.180;4.462;2024-02-21T05:35:17;30.55;;;7.82;;
48629;SDS011;34426;52.180;4.462;2024-02-21T05:37:43;31.00;;;6.72;;
48629;SDS011;34426;52.180;4.462;2024-02-21T05:40:09;33.25;;;7.20;;
48629;SDS011;34426;52.180;4.462;2024-02-21T05:42:35;26.88;;;7.20;;
48629;SDS011;34426;52.180;4.462;2024-02-21T05:45:00;25.15;;;6.53;;
48629;SDS011;34426;52.180;4.462;2024-02-21T05:47:26;29.15;;;7.13;;
48629;SDS011;34426;52.180;4.462;2024-02-21T05:49:53;22.38;;;7.93;;
48629;SDS011;34426;52.180;4.462;2024-02-21T05:52:18;22.20;;;9.07;;
48629;SDS011;34426;52.180;4.462;2024-02-21T05:54:43;27.60;;;9.18;;
48629;SDS011;34426;52.180;4.462;2024-02-21T05:57:09;27.23;;;10.13;;
48629;SDS011;34426;52.180;4.462;2024-02-21T05:59:34;25.52;;;9.05;;
48629;SDS011;34426;52.180;4.462;2024-02-21T06:02:00;23.23;;;9.65;;
48629;SDS011;34426;52.180;4.462;2024-02-21T06:04:25;26.38;;;9.48;;
48629;SDS011;34426;52.180;4.462;2024-02-21T06:06:52;27.48;;;9.27;;
48629;SDS011;34426;52.180;4.462;2024-02-21T06:09:17;30.60;;;9.38;;
48629;SDS011;34426;52.180;4.462;2024-02-21T06:11:43;15.57;;;8.35;;
48629;SDS011;34426;52.180;4.462;2024-02-21T06:14:08;31.15;;;9.60;;
48629;SDS011;34426;52.180;4.462;2024-02-21T06:16:34;22.30;;;9.48;;
48629;SDS011;34426;52.180;4.462;2024-02-21T06:18:59;18.63;;;10.65;;
48629;SDS011;34426;52.180;4.462;2024-02-21T06:21:28;24.55;;;10.45;;
48629;SDS011;34426;52.180;4.462;2024-02-21T06:23:55;27.98;;;11.27;;
48629;SDS011;34426;52.180;4.462;2024-02-21T06:26:21;31.67;;;11.55;;
48629;SDS011;34426;52.180;4.462;2024-02-21T06:28:46;21.05;;;10.05;;
48629;SDS011;34426;52.180;4.462;2024-02-21T06:31:11;26.20;;;11.18;;
48629;SDS011;34426;52.180;4.462;2024-02-21T06:33:37;18.73;;;10.07;;
48629;SDS011;34426;52.180;4.462;2024-02-21T06:36:02;24.77;;;10.90;;
48629;SDS011;34426;52.180;4.462;2024-02-21T06:38:28;32.25;;;11.70;;
48629;SDS011;34426;52.180;4.462;2024-02-21T06:40:55;24.25;;;11.07;;
48629;SDS011;34426;52.180;4.462;2024-02-21T06:43:20;21.90;;;11.23;;
48629;SDS011;34426;52.180;4.462;2024-02-21T06:45:46;25.95;;;11.45;;
48629;SDS011;34426;52.180;4.462;2024-02-21T06:48:11;26.23;;;11.27;;
48629;SDS011;34426;52.180;4.462;2024-02-21T06:50:37;23.98;;;12.52;;
48629;SDS011;34426;52.180;4.462;2024-02-21T06:53:02;19.08;;;11.48;;
48629;SDS011;34426;52.180;4.462;2024-02-21T06:55:28;25.40;;;12.27;;
48629;SDS011;34426;52.180;4.462;2024-02-21T06:57:55;26.50;;;12.15;;
48629;SDS011;34426;52.180;4.462;2024-02-21T07:00:20;26.98;;;11.85;;
48629;SDS011;34426;52.180;4.462;2024-02-21T07:02:46;20.75;;;11.88;;
48629;SDS011;34426;52.180;4.462;2024-02-21T07:05:13;28.42;;;12.07;;
48629;SDS011;34426;52.180;4.462;2024-02-21T07:07:39;24.83;;;11.70;;
48629;SDS011;34426;52.180;4.462;2024-02-21T07:10:04;20.02;;;12.20;;
48629;SDS011;34426;52.180;4.462;2024-02-21T07:12:30;25.75;;;13.20;;
48629;SDS011;34426;52.180;4.462;2024-02-21T07:14:58;31.75;;;13.07;;
48629;SDS011;34426;52.180;4.462;2024-02-21T07:17:23;20.25;;;12.13;;
48629;SDS011;34426;52.180;4.462;2024-02-21T07:19:49;25.27;;;12.82;;
48629;SDS011;34426;52.180;4.462;2024-02-21T07:22:14;34.40;;;14.15;;
48629;SDS011;34426;52.180;4.462;2024-02-21T07:24:40;33.15;;;13.32;;
48629;SDS011;34426;52.180;4.462;2024-02-21T07:27:05;28.55;;;13.27;;
48629;SDS011;34426;52.180;4.462;2024-02-21T07:29:31;24.02;;;13.02;;
48629;SDS011;34426;52.180;4.462;2024-02-21T07:31:57;28.08;;;13.52;;
48629;SDS011;34426;52.180;4.462;2024-02-21T07:34:23;25.35;;;14.40;;
48629;SDS011;34426;52.180;4.462;2024-02-21T07:36:48;27.27;;;14.07;;
48629;SDS011;34426;52.180;4.462;2024-02-21T07:39:14;25.45;;;14.05;;
48629;SDS011;34426;52.180;4.462;2024-02-21T07:41:39;30.92;;;14.90;;
48629;SDS011;34426;52.180;4.462;2024-02-21T07:44:05;29.52;;;14.20;;
48629;SDS011;34426;52.180;4.462;2024-02-21T07:46:30;31.10;;;14.50;;
48629;SDS011;34426;52.180;4.462;2024-02-21T07:48:57;30.52;;;14.70;;
48629;SDS011;34426;52.180;4.462;2024-02-21T07:51:22;27.48;;;14.18;;
48629;SDS011;34426;52.180;4.462;2024-02-21T07:53:52;30.58;;;14.52;;
48629;SDS011;34426;52.180;4.462;2024-02-21T07:56:18;31.58;;;16.10;;
48629;SDS011;34426;52.180;4.462;2024-02-21T07:58:43;24.80;;;14.82;;
48629;SDS011;34426;52.180;4.462;2024-02-21T08:01:09;29.70;;;15.50;;
48629;SDS011;34426;52.180;4.462;2024-02-21T08:03:35;31.38;;;16.85;;
48629;SDS011;34426;52.180;4.462;2024-02-21T08:06:02;26.10;;;15.32;;
48629;SDS011;34426;52.180;4.462;2024-02-21T08:08:28;31.27;;;16.05;;
48629;SDS011;34426;52.180;4.462;2024-02-21T08:10:54;28.65;;;16.33;;
48629;SDS011;34426;52.180;4.462;2024-02-21T08:13:19;28.10;;;16.00;;
48629;SDS011;34426;52.180;4.462;2024-02-21T08:15:45;23.95;;;15.00;;
48629;SDS011;34426;52.180;4.462;2024-02-21T08:18:10;31.45;;;15.82;;
48629;SDS011;34426;52.180;4.462;2024-02-21T08:20:35;24.73;;;15.68;;
48629;SDS011;34426;52.180;4.462;2024-02-21T08:23:02;27.25;;;15.43;;
48629;SDS011;34426;52.180;4.462;2024-02-21T08:25:28;25.95;;;14.55;;
48629;SDS011;34426;52.180;4.462;2024-02-21T08:27:55;25.13;;;14.55;;
48629;SDS011;34426;52.180;4.462;2024-02-21T08:30:22;22.17;;;13.40;;
48629;SDS011;34426;52.180;4.462;2024-02-21T08:32:48;28.35;;;14.88;;
48629;SDS011;34426;52.180;4.462;2024-02-21T08:35:13;26.45;;;14.13;;
48629;SDS011;34426;52.180;4.462;2024-02-21T08:37:39;25.42;;;13.55;;
48629;SDS011;34426;52.180;4.462;2024-02-21T08:40:06;26.77;;;15.30;;
48629;SDS011;34426;52.180;4.462;2024-02-21T08:42:32;28.00;;;14.10;;
48629;SDS011;34426;52.180;4.462;2024-02-21T08:44:57;28.27;;;14.45;;
48629;SDS011;34426;52.180;4.462;2024-02-21T08:47:23;25.80;;;13.95;;
48629;SDS011;34426;52.180;4.462;2024-02-21T08:49:48;26.38;;;15.32;;
48629;SDS011;34426;52.180;4.462;2024-02-21T08:52:14;28.98;;;14.35;;
48629;SDS011;34426;52.180;4.462;2024-02-21T08:54:39;30.40;;;15.88;;
48629;SDS011;34426;52.180;4.462;2024-02-21T08:57:06;26.38;;;15.80;;
48629;SDS011;34426;52.180;4.462;2024-02-21T08:59:31;26.38;;;17.23;;
48629;SDS011;34426;52.180;4.462;2024-02-21T09:01:57;29.73;;;16.45;;
48629;SDS011;34426;52.180;4.462;2024-02-21T09:04:22;25.10;;;17.38;;
48629;SDS011;34426;52.180;4.462;2024-02-21T09:06:48;31.73;;;18.25;;
48629;SDS011;34426;52.180;4.462;2024-02-21T09:09:13;27.33;;;17.60;;
48629;SDS011;34426;52.180;4.462;2024-02-21T09:11:38;32.15;;;17.55;;
48629;SDS011;34426;52.180;4.462;2024-02-21T09:14:05;28.85;;;17.65;;
48629;SDS011;34426;52.180;4.462;2024-02-21T09:16:31;30.85;;;16.63;;
48629;SDS011;34426;52.180;4.462;2024-02-21T09:18:56;38.60;;;18.10;;
48629;SDS011;34426;52.180;4.462;2024-02-21T09:21:22;27.23;;;17.00;;
48629;SDS011;34426;52.180;4.462;2024-02-21T09:23:47;26.65;;;14.40;;
48629;SDS011;34426;52.180;4.462;2024-02-21T09:26:12;27.85;;;15.55;;
48629;SDS011;34426;52.180;4.462;2024-02-21T09:28:38;26.92;;;15.63;;
48629;SDS011;34426;52.180;4.462;2024-02-21T09:31:05;32.30;;;15.02;;
48629;SDS011;34426;52.180;4.462;2024-02-21T09:33:30;30.15;;;14.73;;
48629;SDS011;34426;52.180;4.462;2024-02-21T09:35:56;25.20;;;14.00;;
48629;SDS011;34426;52.180;4.462;2024-02-21T09:38:21;23.58;;;14.38;;
48629;SDS011;34426;52.180;4.462;2024-02-21T09:40:47;22.10;;;12.80;;
48629;SDS011;34426;52.180;4.462;2024-02-21T09:43:12;24.42;;;12.95;;
48629;SDS011;34426;52.180;4.462;2024-02-21T09:45:42;20.55;;;12.70;;
48629;SDS011;34426;52.180;4.462;2024-02-21T09:48:25;19.60;;;11.98;;
48629;SDS011;34426;52.180;4.462;2024-02-21T09:50:58;22.27;;;11.80;;
48629;SDS011;34426;52.180;4.462;2024-02-21T09:53:24;20.55;;;11.68;;
48629;SDS011;34426;52.180;4.462;2024-02-21T09:55:50;19.65;;;12.48;;
48629;SDS011;34426;52.180;4.462;2024-02-21T09:58:16;23.58;;;12.02;;
48629;SDS011;34426;52.180;4.462;2024-02-21T10:00:41;21.35;;;11.10;;
48629;SDS011;34426;52.180;4.462;2024-02-21T10:03:07;25.73;;;12.27;;
48629;SDS011;34426;52.180;4.462;2024-02-21T10:05:34;19.75;;;11.57;;
48629;SDS011;34426;52.180;4.462;2024-02-21T10:07:59;20.33;;;11.68;;
48629;SDS011;34426;52.180;4.462;2024-02-21T10:10:25;23.42;;;11.98;;
48629;SDS011;34426;52.180;4.462;2024-02-21T10:12:51;14.60;;;10.32;;
48629;SDS011;34426;52.180;4.462;2024-02-21T10:15:19;18.60;;;10.88;;
48629;SDS011;34426;52.180;4.462;2024-02-21T10:17:45;20.90;;;11.02;;
48629;SDS011;34426;52.180;4.462;2024-02-21T10:20:11;16.15;;;10.57;;
48629;SDS011;34426;52.180;4.462;2024-02-21T10:22:38;19.05;;;11.32;;
48629;SDS011;34426;52.180;4.462;2024-02-21T10:25:07;20.65;;;11.07;;
48629;SDS011;34426;52.180;4.462;2024-02-21T10:27:33;25.38;;;12.27;;
48629;SDS011;34426;52.180;4.462;2024-02-21T10:29:58;23.65;;;11.90;;
48629;SDS011;34426;52.180;4.462;2024-02-21T10:32:24;21.73;;;10.55;;
48629;SDS011;34426;52.180;4.462;2024-02-21T10:34:49;21.60;;;11.35;;
48629;SDS011;34426;52.180;4.462;2024-02-21T10:37:14;20.27;;;11.70;;
48629;SDS011;34426;52.180;4.462;2024-02-21T10:39:41;21.80;;;11.57;;
48629;SDS011;34426;52.180;4.462;2024-02-21T10:42:07;25.70;;;11.52;;
48629;SDS011;34426;52.180;4.462;2024-02-21T10:44:37;20.83;;;12.35;;
48629;SDS011;34426;52.180;4.462;2024-02-21T10:47:04;19.98;;;11.63;;
48629;SDS011;34426;52.180;4.462;2024-02-21T10:49:33;24.27;;;13.43;;
48629;SDS011;34426;52.180;4.462;2024-02-21T10:52:12;20.63;;;13.15;;
48629;SDS011;34426;52.180;4.462;2024-02-21T10:54:41;20.15;;;13.40;;
48629;SDS011;34426;52.180;4.462;2024-02-21T10:57:13;24.25;;;13.63;;
48629;SDS011;34426;52.180;4.462;2024-02-21T10:59:38;15.75;;;12.45;;
48629;SDS011;34426;52.180;4.462;2024-02-21T11:02:04;17.83;;;13.32;;
48629;SDS011;34426;52.180;4.462;2024-02-21T11:04:30;19.08;;;12.95;;
48629;SDS011;34426;52.180;4.462;2024-02-21T11:06:56;17.58;;;12.85;;
48629;SDS011;34426;52.180;4.462;2024-02-21T11:09:29;18.95;;;12.90;;
48629;SDS011;34426;52.180;4.462;2024-02-21T11:11:57;21.15;;;13.65;;
48629;SDS011;34426;52.180;4.462;2024-02-21T11:14:25;15.95;;;13.27;;
48629;SDS011;34426;52.180;4.462;2024-02-21T11:16:52;18.25;;;13.70;;
48629;SDS011;34426;52.180;4.462;2024-02-21T11:19:21;20.60;;;12.90;;
48629;SDS011;34426;52.180;4.462;2024-02-21T11:21:47;24.58;;;12.52;;
48629;SDS011;34426;52.180;4.462;2024-02-21T11:24:13;13.82;;;11.30;;
48629;SDS011;34426;52.180;4.462;2024-02-21T11:26:39;17.75;;;11.63;;
48629;SDS011;34426;52.180;4.462;2024-02-21T11:29:06;21.90;;;12.85;;
48629;SDS011;34426;52.180;4.462;2024-02-21T11:31:38;18.83;;;11.82;;
48629;SDS011;34426;52.180;4.462;2024-02-21T11:34:04;15.77;;;11.07;;
48629;SDS011;34426;52.180;4.462;2024-02-21T11:36:29;16.02;;;10.80;;
48629;SDS011;34426;52.180;4.462;2024-02-21T11:38:55;20.70;;;12.38;;
48629;SDS011;34426;52.180;4.462;2024-02-21T11:41:28;16.50;;;11.65;;
48629;SDS011;34426;52.180;4.462;2024-02-21T11:43:54;18.77;;;11.90;;
48629;SDS011;34426;52.180;4.462;2024-02-21T11:46:20;16.80;;;11.32;;
48629;SDS011;34426;52.180;4.462;2024-02-21T11:48:46;17.92;;;11.80;;
48629;SDS011;34426;52.180;4.462;2024-02-21T11:51:11;16.30;;;11.07;;
48629;SDS011;34426;52.180;4.462;2024-02-21T11:53:46;17.05;;;10.48;;
48629;SDS011;34426;52.180;4.462;2024-02-21T11:56:13;16.08;;;10.40;;
48629;SDS011;34426;52.180;4.462;2024-02-21T11:58:38;17.20;;;10.63;;
48629;SDS011;34426;52.180;4.462;2024-02-21T12:01:04;16.83;;;9.98;;
48629;SDS011;34426;52.180;4.462;2024-02-21T12:03:31;19.15;;;9.68;;
48629;SDS011;34426;52.180;4.462;2024-02-21T12:05:56;17.08;;;8.88;;
48629;SDS011;34426;52.180;4.462;2024-02-21T12:08:22;17.88;;;9.32;;
48629;SDS011;34426;52.180;4.462;2024-02-21T12:10:48;12.30;;;8.93;;
48629;SDS011;34426;52.180;4.462;2024-02-21T12:13:14;18.70;;;9.60;;
48629;SDS011;34426;52.180;4.462;2024-02-21T12:15:39;13.50;;;8.50;;
48629;SDS011;34426;52.180;4.462;2024-02-21T12:18:04;15.68;;;8.23;;
48629;SDS011;34426;52.180;4.462;2024-02-21T12:20:31;16.98;;;8.32;;
48629;SDS011;34426;52.180;4.462;2024-02-21T12:22:57;12.80;;;8.07;;
48629;SDS011;34426;52.180;4.462;2024-02-21T12:25:25;14.27;;;7.90;;
48629;SDS011;34426;52.180;4.462;2024-02-21T12:27:50;13.68;;;7.28;;
48629;SDS011;34426;52.180;4.462;2024-02-21T12:30:16;10.65;;;7.32;;
48629;SDS011;34426;52.180;4.462;2024-02-21T12:32:41;15.18;;;7.28;;
48629;SDS011;34426;52.180;4.462;2024-02-21T12:35:07;13.82;;;6.65;;
48629;SDS011;34426;52.180;4.462;2024-02-21T12:37:34;13.07;;;7.03;;
48629;SDS011;34426;52.180;4.462;2024-02-21T12:40:00;13.02;;;7.25;;
48629;SDS011;34426;52.180;4.462;2024-02-21T12:42:25;11.95;;;7.32;;
48629;SDS011;34426;52.180;4.462;2024-02-21T12:44:51;18.08;;;7.25;;
48629;SDS011;34426;52.180;4.462;2024-02-21T12:47:17;17.77;;;6.88;;
48629;SDS011;34426;52.180;4.462;2024-02-21T12:49:42;13.98;;;7.63;;
48629;SDS011;34426;52.180;4.462;2024-02-21T12:52:08;15.68;;;6.93;;
48629;SDS011;34426;52.180;4.462;2024-02-21T12:54:35;15.60;;;8.15;;
48629;SDS011;34426;52.180;4.462;2024-02-21T12:57:00;15.25;;;8.30;;
48629;SDS011;34426;52.180;4.462;2024-02-21T12:59:25;13.05;;;7.50;;
48629;SDS011;34426;52.180;4.462;2024-02-21T13:01:51;14.02;;;7.70;;
48629;SDS011;34426;52.180;4.462;2024-02-21T13:04:16;13.82;;;7.45;;
48629;SDS011;34426;52.180;4.462;2024-02-21T13:06:42;11.02;;;7.95;;
48629;SDS011;34426;52.180;4.462;2024-02-21T13:09:07;18.98;;;8.10;;
48629;SDS011;34426;52.180;4.462;2024-02-21T13:11:35;17.98;;;8.68;;
48629;SDS011;34426;52.180;4.462;2024-02-21T13:14:00;17.35;;;8.70;;
48629;SDS011;34426;52.180;4.462;2024-02-21T13:16:26;14.60;;;7.45;;
48629;SDS011;34426;52.180;4.462;2024-02-21T13:18:51;14.27;;;8.23;;
48629;SDS011;34426;52.180;4.462;2024-02-21T13:21:16;11.15;;;8.02;;
48629;SDS011;34426;52.180;4.462;2024-02-21T13:23:42;13.60;;;7.03;;
48629;SDS011;34426;52.180;4.462;2024-02-21T13:26:07;13.52;;;7.35;;
48629;SDS011;34426;52.180;4.462;2024-02-21T13:28:34;15.48;;;7.90;;
48629;SDS011;34426;52.180;4.462;2024-02-21T13:31:00;12.43;;;7.80;;
48629;SDS011;34426;52.180;4.462;2024-02-21T13:33:25;9.93;;;7.88;;
48629;SDS011;34426;52.180;4.462;2024-02-21T13:35:50;16.98;;;8.73;;
48629;SDS011;34426;52.180;4.462;2024-02-21T13:38:16;16.45;;;8.85;;
48629;SDS011;34426;52.180;4.462;2024-02-21T13:40:41;10.85;;;7.60;;
48629;SDS011;34426;52.180;4.462;2024-02-21T13:43:07;15.80;;;8.82;;
48629;SDS011;34426;52.180;4.462;2024-02-21T13:45:34;11.90;;;8.68;;
48629;SDS011;34426;52.180;4.462;2024-02-21T13:47:59;14.98;;;9.75;;
48629;SDS011;34426;52.180;4.462;2024-02-21T13:50:27;14.48;;;9.70;;
48629;SDS011;34426;52.180;4.462;2024-02-21T13:52:55;17.27;;;9.52;;
48629;SDS011;34426;52.180;4.462;2024-02-21T13:55:20;14.65;;;9.73;;
48629;SDS011;34426;52.180;4.462;2024-02-21T13:57:46;19.80;;;10.63;;
48629;SDS011;34426;52.180;4.462;2024-02-21T14:00:12;20.02;;;12.27;;
48629;SDS011;34426;52.180;4.462;2024-02-21T14:02:39;18.90;;;11.38;;
48629;SDS011;34426;52.180;4.462;2024-02-21T14:05:05;24.40;;;12.45;;
48629;SDS011;34426;52.180;4.462;2024-02-21T14:07:31;25.52;;;14.02;;
48629;SDS011;34426;52.180;4.462;2024-02-21T14:09:56;22.73;;;14.55;;
48629;SDS011;34426;52.180;4.462;2024-02-21T14:12:22;20.33;;;13.68;;
48629;SDS011;34426;52.180;4.462;2024-02-21T14:14:47;19.52;;;14.23;;
48629;SDS011;34426;52.180;4.462;2024-02-21T14:17:13;20.10;;;12.27;;
48629;SDS011;34426;52.180;4.462;2024-02-21T14:19:39;20.52;;;11.05;;
48629;SDS011;34426;52.180;4.462;2024-02-21T14:22:05;17.92;;;10.32;;